首页
METAR-TAF:

METAR-TAF

机场 :

布達佩斯李斯特·費倫茨國際機場

布达佩斯, 匈牙利

纬度: 47-26N, 经度: 019-16E, 海拔: 151米

当前天气观测

该预报发布于5分钟前的01:30 UTC
风速2节,风向多变
温度 9°C
湿度 100%
气压 1019 hPa
能見度: 0800
碎片雾, 轻雾

METAR: LHBP 170130Z VRB02KT 4000 0800SE BCFG BR NSC 09/09 Q1019 TEMPO 2000 BCFG

时间: 03:35 (01:35 UTC)

预报

该预报发布于2小时和20分钟前的23:15 UTC
预报有效从17日的 00点(UTC)到 17日的 24点(UTC)
风速3节,风向多变
能见度10公里或以上
1500米以下无云,无积雨云
短暂存在
从 17日的 01点(UTC)到 17日的 06点(UTC)
能見度: 2500
碎片雾, 轻雾

TAF: LHBP 162315Z 1700/1724 VRB03KT CAVOK TEMPO 1701/1706 2500 BCFG BR

超过4000个机场的气象观测和天气预报(METAR&TAF报告)。

可查询的气象台以黄色和红色小点在地图上表示。

将鼠标移到小点上方,可查看气象台名称。

然后点击查看天气观测和预报。

如需切换地图:点击带黑十字的绿色按钮放大地图;点击带横线的绿色按钮缩小地图;或者点击绿色箭头查看邻近地区的地图。


METAR-TAF: